Archival Weather

Republic

Farmingdale, New York (KFRG)

Report from: Monday, February 12, 2024 7:53 PM EST
Current time: Monday, June 24, 2024 7:34 AM EDT

Current weather – Weather history – Daily summaries
Weather forecast

Temperature4.4°C (39.9°F)
Wind chill2.6°C (36.7°F)
Dew point-1.7°C (28.9°F)
Winds 4 kts (2.1 m/s, 4.6 mph) Northeast (40°)
Visibility10 mi. (16.1 km)
Clouds Few clouds 11,000 ft. (3,353 m)
Altimeter29.85 in.Hg (1011 mB)
Relative humidity65 %
Density altitude-1,116 ft. (-340 m)
Sea-level pressure101.1 kPa (1011 mB, 29.85 in.Hg)
Remarks Automated weather observing station without precipitation discriminator
Flight conditions Visual Meteorological Conditions
Raw dataKFRG 130053Z 04004KT 10SM FEW110 04/M02 A2985 RMK AO1 SLP108 T00441017
An error has occurred. This application may no longer respond until reloaded. Reload 🗙